createdAt,value
2023-01-17T00:00:34.917Z,66.17
2023-01-17T00:03:01.642Z,66.19
2023-01-17T00:05:46.756Z,66.36
2023-01-17T00:08:31.976Z,66.88
2023-01-17T00:10:58.772Z,66.25
2023-01-17T00:13:25.384Z,66.25
2023-01-17T00:15:52.201Z,66.70
2023-01-17T00:18:18.846Z,66.62
2023-01-17T00:21:04.248Z,66.48
2023-01-17T00:23:52.318Z,66.17
2023-01-17T00:26:19.668Z,66.32
2023-01-17T00:28:48.235Z,66.36
2023-01-17T00:31:16.320Z,65.90
2023-01-17T00:33:43.188Z,65.90
2023-01-17T00:36:10.517Z,65.80
2023-01-17T00:38:37.850Z,65.63
2023-01-17T00:41:05.584Z,65.65
2023-01-17T00:43:51.073Z,65.78
2023-01-17T00:46:36.669Z,66.23
2023-01-17T00:49:21.697Z,66.42
2023-01-17T00:52:06.749Z,66.14
2023-01-17T00:54:51.983Z,66.43
2023-01-17T00:57:37.236Z,66.18
2023-01-17T01:00:22.493Z,66.23
2023-01-17T01:03:07.644Z,66.39
2023-01-17T01:05:52.914Z,66.27
2023-01-17T01:08:45.429Z,66.83
2023-01-17T01:11:31.796Z,66.62
2023-01-17T01:14:18.003Z,66.65
2023-01-17T01:17:03.223Z,66.33
2023-01-17T01:19:48.544Z,66.37
2023-01-17T01:22:33.805Z,66.18
2023-01-17T01:25:19.079Z,66.13
2023-01-17T01:28:04.222Z,65.95
2023-01-17T01:30:49.862Z,65.73
2023-01-17T01:33:20.385Z,65.67
2023-01-17T01:35:48.230Z,65.55
2023-01-17T01:38:15.326Z,65.58
2023-01-17T01:40:42.934Z,65.19
2023-01-17T01:43:10.950Z,65.17
2023-01-17T01:45:37.750Z,65.13
2023-01-17T01:48:07.248Z,65.26
2023-01-17T01:50:36.098Z,65.03
2023-01-17T01:53:03.747Z,64.91
2023-01-17T01:55:39.438Z,64.51
2023-01-17T01:58:13.198Z,63.58
2023-01-17T02:00:41.172Z,62.52
2023-01-17T02:03:13.254Z,62.22
2023-01-17T02:05:42.518Z,61.53
2023-01-17T02:08:11.850Z,60.89
2023-01-17T02:10:41.922Z,60.48
2023-01-17T02:13:09.412Z,59.94
2023-01-17T02:15:42.166Z,59.38
2023-01-17T02:18:11.827Z,59.20
2023-01-17T02:20:38.396Z,58.90
2023-01-17T02:23:28.218Z,58.40
2023-01-17T02:26:13.413Z,58.11
2023-01-17T02:28:48.933Z,57.85
2023-01-17T02:31:23.947Z,57.18
2023-01-17T02:33:50.681Z,56.71
2023-01-17T02:36:17.406Z,56.73
2023-01-17T02:38:51.756Z,56.04
2023-01-17T02:41:21.511Z,55.78
2023-01-17T02:43:51.582Z,55.44
2023-01-17T02:46:18.331Z,55.38
2023-01-17T02:48:46.161Z,54.92
2023-01-17T02:51:30.825Z,54.84
2023-01-17T02:54:20.113Z,54.81
2023-01-17T02:56:46.746Z,54.67
2023-01-17T02:59:19.440Z,54.02
2023-01-17T03:01:51.951Z,54.00
2023-01-17T03:04:21.277Z,53.44
2023-01-17T03:06:54.172Z,53.48
2023-01-17T03:09:21.269Z,53.33
2023-01-17T03:11:48.075Z,53.21
2023-01-17T03:14:14.748Z,53.05
2023-01-17T03:16:41.405Z,52.79
2023-01-17T03:19:09.892Z,52.98
2023-01-17T03:21:36.541Z,52.54
2023-01-17T03:24:03.242Z,52.47
2023-01-17T03:26:30.253Z,52.48
2023-01-17T03:28:56.897Z,52.37
2023-01-17T03:31:23.585Z,52.05
2023-01-17T03:33:50.218Z,51.88
2023-01-17T03:36:16.869Z,51.85
2023-01-17T03:38:43.554Z,51.88
2023-01-17T03:41:10.130Z,51.77
2023-01-17T03:43:36.776Z,51.61
2023-01-17T03:46:17.255Z,51.36
2023-01-17T03:48:43.951Z,51.20
2023-01-17T03:51:10.494Z,51.25
2023-01-17T03:53:37.100Z,51.13
2023-01-17T03:56:03.657Z,50.99
2023-01-17T03:58:30.289Z,51.12
2023-01-17T04:00:56.928Z,50.96
2023-01-17T04:03:23.665Z,50.92
2023-01-17T04:05:50.343Z,50.68
2023-01-17T04:08:17.252Z,51.00
2023-01-17T04:10:43.861Z,50.96
2023-01-17T04:13:10.419Z,50.70
2023-01-17T04:15:36.966Z,50.65
2023-01-17T04:18:04.665Z,50.64
2023-01-17T04:20:33.189Z,50.80
2023-01-17T04:22:59.792Z,50.63
2023-01-17T04:25:26.507Z,50.60
2023-01-17T04:27:53.604Z,50.82
2023-01-17T04:30:20.308Z,50.97
2023-01-17T04:32:47.047Z,50.94
2023-01-17T04:35:13.719Z,50.79
2023-01-17T04:37:40.337Z,50.95
2023-01-17T04:40:07.307Z,50.90
2023-01-17T04:42:34.084Z,51.01
2023-01-17T04:45:00.631Z,51.13
2023-01-17T04:47:27.461Z,51.07
2023-01-17T04:49:54.012Z,51.13
2023-01-17T04:52:20.681Z,51.14
2023-01-17T04:54:50.952Z,51.12
2023-01-17T04:57:17.719Z,51.17
2023-01-17T04:59:44.677Z,51.10
2023-01-17T05:02:11.903Z,51.16
2023-01-17T05:04:39.021Z,51.23
2023-01-17T05:07:06.107Z,51.19
2023-01-17T05:09:32.710Z,51.09
2023-01-17T05:11:59.327Z,51.16
2023-01-17T05:14:26.407Z,51.13
2023-01-17T05:16:56.732Z,51.19
2023-01-17T05:19:23.747Z,51.53
2023-01-17T05:21:50.356Z,51.50
2023-01-17T05:24:17.075Z,51.41
2023-01-17T05:26:43.581Z,51.65
2023-01-17T05:29:10.310Z,52.00
2023-01-17T05:31:36.872Z,51.98
2023-01-17T05:34:03.881Z,52.04
2023-01-17T05:36:30.581Z,51.97
2023-01-17T05:38:57.279Z,52.09
2023-01-17T05:41:23.857Z,52.36
2023-01-17T05:43:50.481Z,53.00
2023-01-17T05:46:18.107Z,52.34
2023-01-17T05:48:44.831Z,52.23
2023-01-17T05:51:11.388Z,52.39
2023-01-17T05:53:38.042Z,52.42
2023-01-17T05:56:04.718Z,52.44
2023-01-17T05:58:31.312Z,52.30
2023-01-17T06:00:57.884Z,52.37
2023-01-17T06:03:24.528Z,52.24
2023-01-17T06:05:51.164Z,52.30
2023-01-17T06:08:17.788Z,52.23
2023-01-17T06:10:44.321Z,52.36
2023-01-17T06:13:12.656Z,52.95
2023-01-17T06:15:39.733Z,53.75
2023-01-17T06:18:07.406Z,53.99
2023-01-17T06:20:34.218Z,54.31
2023-01-17T06:23:02.353Z,54.62
2023-01-17T06:25:28.981Z,54.71
2023-01-17T06:27:55.734Z,55.06
2023-01-17T06:30:22.425Z,54.97
2023-01-17T06:32:52.443Z,55.54
2023-01-17T06:35:19.689Z,55.92
2023-01-17T06:37:46.261Z,56.26
2023-01-17T06:40:12.881Z,56.43
2023-01-17T06:42:39.442Z,56.28
2023-01-17T06:45:06.397Z,56.36
2023-01-17T06:47:33.072Z,56.66
2023-01-17T06:50:01.322Z,56.91
2023-01-17T06:52:27.853Z,56.89
2023-01-17T06:54:54.424Z,57.04
2023-01-17T06:57:20.979Z,57.08
2023-01-17T06:59:47.628Z,57.26
2023-01-17T07:02:14.525Z,57.35
2023-01-17T07:04:41.112Z,57.61
2023-01-17T07:07:07.676Z,57.51
2023-01-17T07:09:34.301Z,57.63
2023-01-17T07:12:02.034Z,57.76
2023-01-17T07:14:28.984Z,57.67
2023-01-17T07:16:56.214Z,57.96
2023-01-17T07:19:23.204Z,57.86
2023-01-17T07:21:53.822Z,57.86
2023-01-17T07:24:21.377Z,57.93
2023-01-17T07:26:48.651Z,58.15
2023-01-17T07:29:15.450Z,58.12
2023-01-17T07:31:42.141Z,58.22
2023-01-17T07:34:08.936Z,58.05
2023-01-17T07:36:35.760Z,58.03
2023-01-17T07:39:05.437Z,58.15
2023-01-17T07:41:33.105Z,62.37
2023-01-17T07:44:04.327Z,59.78
2023-01-17T07:46:31.003Z,58.87
2023-01-17T07:48:57.580Z,58.26
2023-01-17T07:51:24.246Z,58.83
2023-01-17T07:53:50.843Z,60.91
2023-01-17T07:56:17.470Z,58.34
2023-01-17T07:58:44.055Z,58.64
2023-01-17T08:01:12.170Z,59.86
2023-01-17T08:03:42.069Z,59.23
2023-01-17T08:06:14.478Z,58.91
2023-01-17T08:08:41.091Z,58.54
2023-01-17T08:11:07.682Z,57.33
2023-01-17T08:13:34.365Z,58.60
2023-01-17T08:16:04.084Z,58.73
2023-01-17T08:18:30.831Z,58.81
2023-01-17T08:20:57.369Z,59.83
2023-01-17T08:23:24.080Z,60.28
2023-01-17T08:25:50.660Z,60.46
2023-01-17T08:28:17.336Z,60.85
2023-01-17T08:30:43.944Z,62.46
2023-01-17T08:33:10.525Z,63.18
2023-01-17T08:35:37.180Z,63.30
2023-01-17T08:38:05.008Z,63.94
2023-01-17T08:40:32.770Z,64.60
2023-01-17T08:43:00.515Z,63.40
2023-01-17T08:45:27.718Z,63.61
2023-01-17T08:47:54.331Z,62.31
2023-01-17T08:50:20.993Z,62.27
2023-01-17T08:52:50.960Z,60.81
2023-01-17T08:55:17.732Z,60.41
2023-01-17T08:57:44.341Z,59.71
2023-01-17T09:00:11.213Z,59.21
2023-01-17T09:02:37.831Z,59.11
2023-01-17T09:05:04.739Z,58.69
2023-01-17T09:07:31.349Z,58.85
2023-01-17T09:09:57.951Z,58.81
2023-01-17T09:12:24.561Z,58.47
2023-01-17T09:14:51.210Z,58.49
2023-01-17T09:17:17.819Z,58.17
2023-01-17T09:19:47.705Z,57.82
2023-01-17T09:22:14.390Z,57.43
2023-01-17T09:24:41.391Z,56.87
2023-01-17T09:27:07.966Z,57.38
2023-01-17T09:29:34.630Z,56.94
2023-01-17T09:32:01.848Z,56.58
2023-01-17T09:34:28.510Z,56.73
2023-01-17T09:36:56.920Z,55.87
2023-01-17T09:39:23.575Z,55.60
2023-01-17T09:42:11.749Z,55.33
2023-01-17T09:44:42.818Z,55.36
2023-01-17T09:47:15.645Z,54.80
2023-01-17T09:49:43.569Z,53.92
2023-01-17T09:52:14.970Z,52.86
2023-01-17T09:54:42.383Z,52.28
2023-01-17T09:57:08.853Z,52.03
2023-01-17T09:59:38.277Z,51.32
2023-01-17T10:02:26.023Z,50.34
2023-01-17T10:05:02.217Z,50.18
2023-01-17T10:07:45.333Z,49.95
2023-01-17T10:10:11.957Z,49.78
2023-01-17T10:12:41.581Z,49.66
2023-01-17T10:15:37.532Z,48.63
2023-01-17T10:18:04.225Z,47.62
2023-01-17T10:20:45.271Z,47.54
2023-01-17T10:23:29.953Z,47.01
2023-01-17T10:26:00.691Z,46.83
2023-01-17T10:28:36.191Z,46.04
2023-01-17T10:31:12.992Z,45.80
2023-01-17T10:33:43.898Z,45.27
2023-01-17T10:36:15.379Z,44.44
2023-01-17T10:38:45.750Z,44.04
2023-01-17T10:41:27.516Z,42.89
2023-01-17T10:43:57.269Z,42.65
2023-01-17T10:46:31.458Z,42.26
2023-01-17T10:48:58.299Z,41.89
2023-01-17T10:51:42.913Z,41.50
2023-01-17T10:54:16.933Z,41.43
2023-01-17T10:56:43.565Z,41.67
2023-01-17T10:59:16.601Z,41.00
2023-01-17T11:01:43.408Z,41.51
2023-01-17T11:04:28.410Z,40.84
2023-01-17T11:07:12.598Z,39.25
2023-01-17T11:09:40.778Z,39.55
2023-01-17T11:12:17.319Z,39.82
2023-01-17T11:14:52.746Z,39.14
2023-01-17T11:17:19.560Z,39.17
2023-01-17T11:19:51.186Z,39.03
2023-01-17T11:22:18.169Z,38.16
2023-01-17T11:24:49.779Z,38.23
2023-01-17T11:27:44.468Z,37.92
2023-01-17T11:30:19.063Z,37.89
2023-01-17T11:33:01.068Z,38.35
2023-01-17T11:35:31.870Z,38.66
2023-01-17T11:38:10.786Z,37.30
2023-01-17T11:40:44.329Z,37.24
2023-01-17T11:43:10.929Z,36.88
2023-01-17T11:45:38.195Z,37.24
2023-01-17T11:48:13.076Z,36.68
2023-01-17T11:50:45.087Z,36.98
2023-01-17T11:53:11.653Z,36.95
2023-01-17T11:55:38.213Z,36.62
2023-01-17T11:58:04.850Z,35.76
2023-01-17T12:00:38.105Z,35.88
2023-01-17T12:03:23.443Z,35.09
2023-01-17T12:05:58.336Z,35.19
2023-01-17T12:08:24.945Z,35.64
2023-01-17T12:10:57.781Z,35.43
2023-01-17T12:13:46.061Z,36.01
2023-01-17T12:16:31.433Z,35.56
2023-01-17T12:19:07.100Z,34.56
2023-01-17T12:21:39.277Z,34.75
2023-01-17T12:24:25.138Z,34.62
2023-01-17T12:26:59.575Z,33.88
2023-01-17T12:29:29.347Z,33.51
2023-01-17T12:31:58.847Z,33.21
2023-01-17T12:34:31.874Z,32.92
2023-01-17T12:37:13.930Z,32.78
2023-01-17T12:39:42.793Z,33.26
2023-01-17T12:42:15.821Z,32.94
2023-01-17T12:44:45.552Z,32.72
2023-01-17T12:47:14.505Z,32.90
2023-01-17T12:49:49.137Z,32.51
2023-01-17T12:52:23.740Z,32.68
2023-01-17T12:55:02.024Z,31.76
2023-01-17T12:57:44.276Z,31.44
2023-01-17T13:00:11.158Z,32.24
2023-01-17T13:02:50.624Z,32.01
2023-01-17T13:05:23.835Z,31.92
2023-01-17T13:07:56.617Z,31.90
2023-01-17T13:10:26.502Z,32.26
2023-01-17T13:12:54.961Z,32.13
2023-01-17T13:15:24.992Z,32.39
2023-01-17T13:17:55.013Z,32.21
2023-01-17T13:20:42.357Z,31.73
2023-01-17T13:23:15.318Z,32.20
2023-01-17T13:25:48.649Z,32.55
2023-01-17T13:28:24.704Z,32.78
2023-01-17T13:30:51.508Z,33.45
2023-01-17T13:33:18.060Z,34.07
2023-01-17T13:35:58.233Z,33.99
2023-01-17T13:38:27.949Z,33.67
2023-01-17T13:41:06.774Z,33.38
2023-01-17T13:43:39.423Z,33.29
2023-01-17T13:46:06.768Z,33.65
2023-01-17T13:48:34.729Z,33.66
2023-01-17T13:51:06.100Z,34.27
2023-01-17T13:53:35.768Z,34.79
2023-01-17T13:56:21.084Z,35.36
2023-01-17T13:58:51.787Z,35.21
2023-01-17T14:01:24.696Z,35.80
2023-01-17T14:03:51.689Z,35.63
2023-01-17T14:06:48.913Z,35.22
2023-01-17T14:09:20.766Z,34.62
2023-01-17T14:12:02.698Z,34.41
2023-01-17T14:14:35.386Z,34.78
2023-01-17T14:17:31.196Z,34.39
2023-01-17T14:20:02.334Z,35.26
2023-01-17T14:22:31.484Z,35.70
2023-01-17T14:25:15.040Z,35.59
2023-01-17T14:27:51.007Z,35.74
2023-01-17T14:30:17.848Z,35.25
2023-01-17T14:33:10.712Z,35.83
2023-01-17T14:35:38.607Z,36.18
2023-01-17T14:38:16.374Z,35.64
2023-01-17T14:40:49.350Z,35.29
2023-01-17T14:43:18.821Z,35.06
2023-01-17T14:45:45.973Z,34.83
2023-01-17T14:48:20.036Z,35.10
2023-01-17T14:50:47.758Z,35.38
2023-01-17T14:53:14.334Z,35.49
2023-01-17T14:55:47.097Z,35.04
2023-01-17T14:58:17.730Z,35.27
2023-01-17T15:00:45.091Z,35.47
2023-01-17T15:03:12.840Z,34.95
2023-01-17T15:05:47.136Z,35.03
2023-01-17T15:08:15.385Z,34.59
2023-01-17T15:10:51.674Z,34.33
2023-01-17T15:13:29.777Z,34.15
2023-01-17T15:16:03.863Z,33.90
2023-01-17T15:18:36.173Z,34.14
2023-01-17T15:21:04.973Z,33.38
2023-01-17T15:23:40.404Z,43.83
2023-01-17T15:26:11.186Z,33.83
2023-01-17T15:28:37.924Z,32.93
2023-01-17T15:31:10.016Z,33.08
2023-01-17T15:33:39.586Z,32.67
2023-01-17T15:36:08.192Z,32.71
2023-01-17T15:38:40.017Z,32.68
2023-01-17T15:41:15.475Z,32.70
2023-01-17T15:43:43.486Z,32.84
2023-01-17T15:46:21.010Z,32.65
2023-01-17T15:48:48.170Z,32.89
2023-01-17T15:51:29.827Z,32.91
2023-01-17T15:53:56.480Z,33.11
2023-01-17T15:56:30.671Z,33.34
2023-01-17T15:59:15.980Z,32.92
2023-01-17T16:01:44.383Z,33.32
2023-01-17T16:04:25.345Z,33.51
2023-01-17T16:06:51.987Z,33.84
2023-01-17T16:09:22.606Z,33.93
2023-01-17T16:11:49.279Z,34.04
2023-01-17T16:14:15.935Z,34.52
2023-01-17T16:16:49.463Z,34.56
2023-01-17T16:19:16.172Z,34.95
2023-01-17T16:21:45.075Z,35.01
2023-01-17T16:24:11.852Z,35.20
2023-01-17T16:26:38.480Z,35.64
2023-01-17T16:29:05.143Z,35.81
2023-01-17T16:31:32.586Z,35.85
2023-01-17T16:33:59.506Z,35.78
2023-01-17T16:36:26.172Z,35.92
2023-01-17T16:38:53.218Z,36.13
2023-01-17T16:41:20.475Z,36.19
2023-01-17T16:43:56.195Z,36.52
2023-01-17T16:46:23.651Z,36.84
2023-01-17T16:48:50.279Z,37.10
2023-01-17T16:51:16.953Z,37.58
2023-01-17T16:53:43.603Z,38.01
2023-01-17T16:56:12.131Z,38.29
2023-01-17T16:58:38.987Z,38.41
2023-01-17T17:01:12.577Z,38.69
2023-01-17T17:03:39.297Z,38.68
2023-01-17T17:06:06.267Z,38.83
2023-01-17T17:08:36.765Z,39.16
2023-01-17T17:11:09.669Z,39.07
2023-01-17T17:13:36.312Z,39.53
2023-01-17T17:16:08.528Z,39.68
2023-01-17T17:18:36.743Z,39.84
2023-01-17T17:21:03.408Z,40.32
2023-01-17T17:23:30.001Z,40.66
2023-01-17T17:25:57.091Z,40.91
2023-01-17T17:28:23.781Z,41.12
2023-01-17T17:30:50.474Z,41.13
2023-01-17T17:33:17.194Z,41.33
2023-01-17T17:35:43.829Z,41.67
2023-01-17T17:38:10.963Z,41.78
2023-01-17T17:40:37.562Z,42.58
2023-01-17T17:43:04.207Z,44.53
2023-01-17T17:45:30.768Z,45.11
2023-01-17T17:47:57.390Z,44.71
2023-01-17T17:50:24.076Z,44.59
2023-01-17T17:52:50.763Z,44.87
2023-01-17T17:55:19.045Z,45.83
2023-01-17T17:57:46.123Z,45.45
2023-01-17T18:00:13.206Z,46.01
2023-01-17T18:02:40.078Z,46.94
2023-01-17T18:05:06.946Z,48.66
2023-01-17T18:07:34.280Z,49.48
2023-01-17T18:10:01.006Z,49.23
2023-01-17T18:12:27.683Z,49.96
2023-01-17T18:14:54.409Z,50.53
2023-01-17T18:17:21.156Z,50.13
2023-01-17T18:19:47.830Z,50.25
2023-01-17T18:22:14.485Z,50.33
2023-01-17T18:24:41.115Z,50.41
2023-01-17T18:27:10.346Z,50.03
2023-01-17T18:29:36.913Z,49.71
2023-01-17T18:32:03.583Z,50.08
2023-01-17T18:34:30.296Z,50.42
2023-01-17T18:36:57.402Z,50.46
2023-01-17T18:39:25.351Z,50.71
2023-01-17T18:41:52.218Z,50.04
2023-01-17T18:44:21.965Z,49.44
2023-01-17T18:46:50.260Z,49.14
2023-01-17T18:49:19.306Z,48.02
2023-01-17T18:51:49.100Z,47.69
2023-01-17T18:54:16.581Z,47.13
2023-01-17T18:56:43.264Z,46.97
2023-01-17T18:59:11.700Z,46.51
2023-01-17T19:01:39.113Z,46.34
2023-01-17T19:04:06.005Z,45.83
2023-01-17T19:06:34.739Z,45.66
2023-01-17T19:09:01.809Z,45.66
2023-01-17T19:11:30.563Z,46.15
2023-01-17T19:13:57.283Z,45.85
2023-01-17T19:16:25.663Z,45.86
2023-01-17T19:18:52.577Z,46.02
2023-01-17T19:21:20.629Z,46.47
2023-01-17T19:23:47.701Z,46.34
2023-01-17T19:26:16.639Z,45.92
2023-01-17T19:28:44.771Z,46.31
2023-01-17T19:31:15.960Z,46.34
2023-01-17T19:33:43.819Z,46.49
2023-01-17T19:36:13.537Z,46.45
2023-01-17T19:38:40.270Z,46.39
2023-01-17T19:41:09.784Z,46.84
2023-01-17T19:43:37.072Z,46.69
2023-01-17T19:46:04.144Z,46.86
2023-01-17T19:48:30.832Z,46.29
2023-01-17T19:51:02.830Z,46.79
2023-01-17T19:53:29.457Z,46.77
2023-01-17T19:55:56.054Z,47.03
2023-01-17T19:58:22.666Z,46.92
2023-01-17T20:00:49.341Z,46.78
2023-01-17T20:03:16.001Z,46.96
2023-01-17T20:05:42.635Z,47.45
2023-01-17T20:08:09.920Z,47.15
2023-01-17T20:10:36.513Z,47.47
2023-01-17T20:13:04.683Z,47.65
2023-01-17T20:15:31.740Z,47.50
2023-01-17T20:17:58.836Z,47.67
2023-01-17T20:20:25.685Z,48.11
2023-01-17T20:22:52.438Z,47.48
2023-01-17T20:25:19.150Z,47.83
2023-01-17T20:27:45.745Z,47.75
2023-01-17T20:30:20.096Z,47.86
2023-01-17T20:32:47.864Z,47.78
2023-01-17T20:35:14.568Z,47.38
2023-01-17T20:37:41.211Z,46.94
2023-01-17T20:40:08.116Z,46.63
2023-01-17T20:42:37.779Z,46.59
2023-01-17T20:45:04.570Z,46.36
2023-01-17T20:47:31.205Z,46.90
2023-01-17T20:49:57.875Z,46.47
2023-01-17T20:52:24.495Z,46.31
2023-01-17T20:54:51.854Z,46.05
2023-01-17T20:57:18.590Z,46.06
2023-01-17T20:59:45.746Z,46.02
2023-01-17T21:02:12.645Z,45.95
2023-01-17T21:04:39.505Z,46.20
2023-01-17T21:07:06.843Z,46.01
2023-01-17T21:09:34.131Z,45.86
2023-01-17T21:12:01.442Z,45.73
2023-01-17T21:14:28.740Z,45.73
2023-01-17T21:16:55.418Z,45.69
2023-01-17T21:19:22.976Z,45.80
2023-01-17T21:21:51.116Z,45.58
2023-01-17T21:24:19.550Z,45.39
2023-01-17T21:26:46.677Z,45.17
2023-01-17T21:29:16.126Z,45.37
2023-01-17T21:31:43.067Z,44.72
2023-01-17T21:34:10.468Z,44.68
2023-01-17T21:36:38.214Z,45.05
2023-01-17T21:39:10.832Z,45.11
2023-01-17T21:41:38.914Z,44.99
2023-01-17T21:44:12.215Z,44.86
2023-01-17T21:46:39.510Z,44.90
2023-01-17T21:49:06.991Z,44.63
2023-01-17T21:51:52.483Z,44.74
2023-01-17T21:54:43.154Z,44.02
2023-01-17T21:57:28.491Z,44.19
2023-01-17T21:59:55.403Z,44.51
2023-01-17T22:02:22.147Z,44.71
2023-01-17T22:04:48.991Z,44.71
2023-01-17T22:07:16.428Z,45.33
2023-01-17T22:09:43.105Z,45.40
2023-01-17T22:12:09.791Z,45.26
2023-01-17T22:14:37.532Z,45.56
2023-01-17T22:17:04.271Z,45.43
2023-01-17T22:19:30.905Z,45.33
2023-01-17T22:21:57.535Z,45.83
2023-01-17T22:24:24.140Z,45.52
2023-01-17T22:26:50.801Z,45.80
2023-01-17T22:29:19.059Z,45.49
2023-01-17T22:31:46.085Z,45.87
2023-01-17T22:34:15.696Z,45.62
2023-01-17T22:36:42.403Z,45.28
2023-01-17T22:39:09.813Z,45.20
2023-01-17T22:41:37.340Z,45.46
2023-01-17T22:44:05.473Z,45.50
2023-01-17T22:46:33.297Z,45.43
2023-01-17T22:49:00.331Z,45.15
2023-01-17T22:51:28.104Z,45.14
2023-01-17T22:53:55.775Z,45.17
2023-01-17T22:56:27.311Z,44.75
2023-01-17T22:58:54.368Z,45.03
2023-01-17T23:01:22.680Z,44.99
2023-01-17T23:03:56.836Z,44.31
2023-01-17T23:06:27.808Z,44.11
2023-01-17T23:08:56.149Z,44.05
2023-01-17T23:11:41.170Z,44.30
2023-01-17T23:14:18.612Z,44.18
2023-01-17T23:17:07.253Z,43.90
2023-01-17T23:19:35.841Z,44.01
2023-01-17T23:22:21.726Z,43.90
2023-01-17T23:24:48.436Z,44.27
2023-01-17T23:27:35.521Z,43.93
2023-01-17T23:30:02.831Z,43.50
2023-01-17T23:32:29.461Z,43.13
2023-01-17T23:34:56.205Z,43.06
2023-01-17T23:37:46.363Z,42.70
2023-01-17T23:40:13.309Z,42.79
2023-01-17T23:42:58.914Z,42.81
2023-01-17T23:45:25.763Z,42.52
2023-01-17T23:47:52.458Z,42.64
2023-01-17T23:50:19.211Z,42.57
2023-01-17T23:52:45.828Z,42.09
2023-01-17T23:55:13.637Z,42.00
2023-01-17T23:57:40.268Z,42.04
